Lindale, Georgia
Current Conditions -  °F | °C
As of 10:53 AM on Saturday 22 Nov 2014 (Local Time) from KRMG Reporting Station
Clear Clear  
Wind Chill: 52°   Ceiling: Unl
Heat Index: 52°   Visibility: 10mi
Dew Point: 28°   Wind: 9mph
Humidity: 40%   Direction: 130°SE
Pressure: 30.43"   Gusts: NA
Location:  34.19°N, 85.17°W
Report Text: KRMG 221553Z AUTO 13008KT 10SM CLR 11/M02 A3043 RMK AO2 SLP303 T01111022
Loading
Personal Weather Stations






























Interactive Weather Map New forecast layout! Learn more

10-Day Weather Forecast

Advertisements
Track Severe Weather on mobile